2020-03-24 60 25

From Geohashing
Tue 24 Mar 2020 in 60,25:
60.1717601, 25.0361746

peeron geohashing.info google osm bing/os kml

crox


Location

Near of the Rudolfinpuisto Yliskylä Laajasalo Helsinki

2020-03-24 60-25 location.jpg

Plans

Got XKCD Coordinate Notify mail from NWoodruff's service (thanks) that said, tomorrow the N60 E25 will be in the near proximity of my current quarantined office. I'll squeeze this on my schedule around midday PPP

Weather Should be fine for March: Cold, Windy but sunny

Participants

PPP

Expedition

Very straight forward expedition, which I started at 11:14. The target area was reached at 11:24 just by instinct without any GPS aiding. When checked from geohash droid I was less than two meters off from the hashpoint in the small rock face. Total time of expedition 21m14sec travelled distance 3.3km by kickbike PPP

Weather & Sky

EFHK 240950Z 23018KT 9999 FEW025 07/M02 Q1028 NOSIG

Photos